Time;durP1;ratioP1;P1;durP2;ratioP2;P2;SDS_P1;SDS_P2;PMS_P1;PMS_P2;Temp;Humidity;BMP_temperature;BMP_pressure;BME280_temperature;BME280_humidity;BME280_pressure;Samples;Min_cycle;Max_cycle;Signal;HPM_P1;HPM_P2
2023/06/01 00:00:45;;;;;;;12.30;5.38;;;;;;;;;;4922311;29;20051;-61
2023/06/01 00:03:12;;;;;;;13.73;6.22;;;12.70;99.90;;;;;;4922182;29;20091;-60
2023/06/01 00:05:38;;;;;;;12.27;6.32;;;;;;;;;;4943722;28;20651;-60
2023/06/01 00:08:04;;;;;;;14.80;6.03;;;12.80;99.90;;;;;;4942382;28;20053;-60
2023/06/01 00:10:30;;;;;;;12.32;6.32;;;13.00;99.90;;;;;;4926004;29;20047;-58
2023/06/01 00:13:00;;;;;;;12.75;5.35;;;12.90;99.90;;;;;;4939801;28;20042;-60
2023/06/01 00:15:27;;;;;;;11.43;5.13;;;12.90;99.90;;;;;;4939541;29;20051;-59
2023/06/01 00:17:52;;;;;;;13.05;5.35;;;13.00;99.90;;;;;;4932971;28;20047;-60
2023/06/01 00:20:18;;;;;;;9.52;4.22;;;12.80;99.90;;;;;;4928081;28;20047;-59
2023/06/01 00:22:44;;;;;;;13.05;5.63;;;12.90;99.90;;;;;;4944780;28;20184;-60
2023/06/01 00:25:09;;;;;;;12.55;4.20;;;13.00;99.90;;;;;;4941652;28;20800;-60
2023/06/01 00:27:37;;;;;;;9.90;4.40;;;;;;;;;;4944266;28;20082;-59
2023/06/01 00:30:03;;;;;;;10.70;4.28;;;12.70;99.90;;;;;;4939394;28;20409;-59
2023/06/01 00:32:28;;;;;;;14.25;4.80;;;12.70;99.90;;;;;;4920546;29;20050;-59
2023/06/01 00:34:54;;;;;;;13.70;5.55;;;12.60;99.90;;;;;;4939517;29;20465;-61
2023/06/01 00:37:20;;;;;;;10.52;4.30;;;12.80;99.90;;;;;;4939484;29;20130;-60
2023/06/01 00:39:45;;;;;;;12.55;4.80;;;12.80;99.90;;;;;;4939107;28;20047;-59
2023/06/01 00:42:11;;;;;;;10.38;4.78;;;12.80;99.90;;;;;;4925887;28;20047;-60
2023/06/01 00:44:37;;;;;;;11.85;4.18;;;12.30;99.90;;;;;;4939042;28;20055;-59
2023/06/01 00:47:03;;;;;;;12.38;4.82;;;13.00;99.90;;;;;;4942871;28;20211;-59
2023/06/01 00:49:28;;;;;;;9.98;4.90;;;12.20;99.90;;;;;;4937438;28;20051;-59
2023/06/01 00:51:54;;;;;;;10.85;4.95;;;12.80;99.90;;;;;;4936328;28;20035;-60
2023/06/01 00:54:20;;;;;;;15.82;4.45;;;12.60;99.90;;;;;;4937736;29;20077;-61
2023/06/01 00:56:46;;;;;;;10.45;4.88;;;12.60;99.90;;;;;;4919849;28;20548;-60
2023/06/01 00:59:12;;;;;;;10.85;4.70;;;12.50;99.90;;;;;;4941109;28;20055;-59
2023/06/01 01:01:38;;;;;;;13.90;5.78;;;12.80;99.90;;;;;;4936522;28;20035;-60
2023/06/01 01:04:05;;;;;;;11.80;4.95;;;12.70;99.90;;;;;;4936959;28;20043;-60
2023/06/01 01:07:09;;;;;;;13.80;5.30;;;12.80;99.90;;;;;;4937564;28;20956;-60
2023/06/01 01:09:39;;;;;;;12.55;4.55;;;12.70;99.90;;;;;;4940825;28;20509;-59
2023/06/01 01:12:23;;;;;;;14.63;5.63;;;12.50;99.90;;;;;;4937390;28;20031;-59
2023/06/01 01:14:52;;;;;;;14.10;7.25;;;;;;;;;;4904245;29;20039;-60
2023/06/01 01:17:32;;;;;;;15.10;5.72;;;12.40;99.90;;;;;;4937495;28;20051;-60
2023/06/01 01:20:12;;;;;;;15.15;5.63;;;12.60;99.90;;;;;;4920484;28;20133;-60
2023/06/01 01:22:38;;;;;;;13.00;6.85;;;12.80;99.90;;;;;;4918552;29;20622;-59
2023/06/01 01:25:35;;;;;;;10.57;5.13;;;12.60;99.90;;;;;;4904755;29;20098;-60
2023/06/01 01:28:29;;;;;;;11.48;5.00;;;12.60;99.90;;;;;;4915600;29;20075;-60
2023/06/01 01:30:57;;;;;;;11.43;5.50;;;12.10;99.90;;;;;;4935680;28;20059;-60
2023/06/01 01:33:23;;;;;;;11.57;4.80;;;12.80;99.90;;;;;;4937110;28;20078;-58
2023/06/01 01:35:50;;;;;;;16.50;6.53;;;12.50;99.90;;;;;;4937166;29;20170;-59
2023/06/01 01:38:18;;;;;;;11.18;5.57;;;12.60;99.90;;;;;;4903921;29;20051;-58
2023/06/01 01:40:44;;;;;;;11.05;5.47;;;12.80;99.90;;;;;;4936274;28;20078;-59
2023/06/01 01:43:10;;;;;;;13.25;4.72;;;12.60;99.90;;;;;;4940730;28;20130;-59
2023/06/01 01:45:36;;;;;;;13.68;5.25;;;12.10;99.90;;;;;;4940828;28;20054;-59
2023/06/01 01:48:31;;;;;;;10.40;5.38;;;12.40;99.90;;;;;;4936338;29;20050;-57
2023/06/01 01:51:02;;;;;;;12.10;5.50;;;12.10;99.90;;;;;;4899682;29;20078;-58
2023/06/01 01:53:30;;;;;;;15.45;6.30;;;11.90;99.90;;;;;;4919210;29;20134;-58
2023/06/01 01:55:56;;;;;;;13.63;6.05;;;12.60;99.90;;;;;;4937192;28;20073;-61
2023/06/01 01:58:24;;;;;;;13.07;6.18;;;12.30;99.90;;;;;;4925832;29;20110;-58
2023/06/01 02:00:50;;;;;;;12.50;6.15;;;12.70;99.90;;;;;;4936352;28;20659;-58
2023/06/01 02:03:17;;;;;;;13.32;5.53;;;12.40;99.90;;;;;;4936809;29;20122;-58
2023/06/01 02:05:43;;;;;;;10.27;4.68;;;12.50;99.90;;;;;;4936728;29;20074;-59
2023/06/01 02:08:11;;;;;;;13.65;4.75;;;;;;;;;;4938255;28;20043;-59
2023/06/01 02:10:37;;;;;;;10.77;4.78;;;12.30;99.90;;;;;;4921194;29;20062;-59
2023/06/01 02:13:03;;;;;;;11.10;5.30;;;12.70;99.90;;;;;;4937140;28;20074;-60
2023/06/01 02:15:29;;;;;;;9.65;4.47;;;12.40;99.90;;;;;;4938364;28;20051;-58
2023/06/01 02:17:54;;;;;;;10.43;4.38;;;12.70;99.90;;;;;;4937112;29;20094;-60
2023/06/01 02:20:20;;;;;;;9.95;4.78;;;12.70;99.90;;;;;;4936440;28;20047;-60
2023/06/01 02:22:46;;;;;;;9.50;3.95;;;12.00;99.90;;;;;;4936897;28;20027;-60
2023/06/01 02:25:11;;;;;;;10.60;3.72;;;11.90;99.90;;;;;;4941483;28;20073;-60
2023/06/01 02:27:37;;;;;;;8.40;3.60;;;12.70;99.90;;;;;;4936948;29;20047;-59
2023/06/01 02:30:06;;;;;;;8.27;4.05;;;12.00;99.90;;;;;;4919433;29;20078;-60
2023/06/01 02:32:32;;;;;;;8.88;4.63;;;12.00;99.90;;;;;;4938688;28;20045;-59
2023/06/01 02:34:58;;;;;;;11.73;4.15;;;12.20;99.90;;;;;;4935740;29;20318;-59
2023/06/01 02:37:24;;;;;;;12.70;4.10;;;;;;;;;;4938803;28;20777;-59
2023/06/01 02:39:50;;;;;;;13.75;4.38;;;12.70;99.90;;;;;;4936548;29;20179;-58
2023/06/01 02:42:16;;;;;;;11.05;4.30;;;12.50;99.90;;;;;;4935937;28;20093;-59
2023/06/01 02:44:41;;;;;;;11.60;4.95;;;12.00;99.90;;;;;;4940993;28;20039;-58
2023/06/01 02:47:07;;;;;;;9.57;3.83;;;12.20;99.90;;;;;;4920835;29;20058;-59
2023/06/01 02:49:33;;;;;;;7.68;3.53;;;12.50;99.90;;;;;;4936122;28;20777;-57
2023/06/01 02:51:58;;;;;;;8.75;3.85;;;11.90;99.90;;;;;;4935884;29;20551;-59
2023/06/01 02:54:24;;;;;;;13.43;4.63;;;12.50;99.90;;;;;;4939699;28;20090;-60
2023/06/01 02:56:50;;;;;;;9.65;4.18;;;12.50;99.90;;;;;;4919177;29;20748;-58
2023/06/01 02:59:15;;;;;;;11.32;4.60;;;12.40;99.90;;;;;;4936125;29;20465;-58
2023/06/01 03:01:41;;;;;;;11.60;3.92;;;12.20;99.90;;;;;;4935195;29;20803;-57
2023/06/01 03:04:07;;;;;;;9.95;3.78;;;12.50;99.90;;;;;;4935995;28;20055;-59
2023/06/01 03:06:37;;;;;;;10.30;4.18;;;11.90;99.90;;;;;;4936306;29;20051;-61
2023/06/01 03:09:12;;;;;;;8.57;3.90;;;12.50;99.90;;;;;;4903711;29;20101;-61
2023/06/01 03:11:40;;;;;;;7.82;3.65;;;12.50;1.00;;;;;;4918187;29;20053;-58
2023/06/01 03:14:06;;;;;;;9.63;4.30;;;12.50;99.90;;;;;;4936031;29;20043;-59
2023/06/01 03:16:32;;;;;;;9.88;4.40;;;;;;;;;;4935221;29;20065;-58
2023/06/01 03:18:58;;;;;;;12.45;4.20;;;11.90;99.90;;;;;;4924461;28;20043;-58
2023/06/01 03:21:24;;;;;;;8.18;3.90;;;12.70;99.90;;;;;;4921758;28;20039;-58
2023/06/01 03:23:50;;;;;;;10.90;3.85;;;;;;;;;;4927173;28;20050;-58
2023/06/01 03:26:18;;;;;;;10.70;3.30;;;12.30;99.90;;;;;;4915100;29;20086;-59
2023/06/01 03:28:44;;;;;;;7.40;3.08;;;12.70;99.90;;;;;;4930820;29;20620;-58
2023/06/01 03:31:11;;;;;;;7.88;3.45;;;11.80;99.90;;;;;;4919169;29;20186;-59
2023/06/01 03:33:37;;;;;;;7.78;3.60;;;12.60;99.90;;;;;;4935573;28;20134;-59
2023/06/01 03:36:04;;;;;;;10.70;3.75;;;12.60;99.90;;;;;;4935977;29;20043;-60
2023/06/01 03:38:30;;;;;;;9.85;3.33;;;11.80;99.90;;;;;;4935640;29;20513;-59
2023/06/01 03:40:56;;;;;;;11.48;3.80;;;12.00;99.90;;;;;;4936806;28;20156;-59
2023/06/01 03:43:21;;;;;;;13.15;4.15;;;12.50;99.90;;;;;;4937339;28;20039;-58
2023/06/01 03:45:47;;;;;;;9.10;3.80;;;12.10;99.90;;;;;;4935488;29;20101;-58
2023/06/01 03:48:13;;;;;;;8.32;3.70;;;11.80;99.90;;;;;;4936414;29;20493;-59
2023/06/01 03:50:38;;;;;;;9.95;3.70;;;12.60;99.90;;;;;;4917623;29;20580;-59
2023/06/01 03:53:04;;;;;;;8.07;3.67;;;11.90;99.90;;;;;;4936053;28;20050;-58
2023/06/01 03:55:30;;;;;;;7.93;3.70;;;12.50;99.90;;;;;;4940517;28;20146;-59
2023/06/01 03:57:56;;;;;;;8.02;4.13;;;12.00;99.90;;;;;;4940230;28;20039;-59
2023/06/01 04:00:23;;;;;;;8.30;4.13;;;;;;;;;;4935679;29;20106;-58
2023/06/01 04:02:55;;;;;;;9.73;4.07;;;12.20;99.90;;;;;;4936433;28;20166;-59
2023/06/01 04:05:21;;;;;;;15.27;4.10;;;12.50;99.90;;;;;;4919261;29;20518;-58
2023/06/01 04:07:48;;;;;;;8.48;3.75;;;12.30;1.00;;;;;;4935433;29;20047;-59
2023/06/01 04:10:16;;;;;;;10.27;3.97;;;12.30;1.00;;;;;;4936080;29;20043;-59
2023/06/01 04:12:43;;;;;;;10.02;4.03;;;12.20;1.00;;;;;;4917329;28;20051;-59
2023/06/01 04:15:10;;;;;;;12.40;3.60;;;12.00;99.90;;;;;;4941062;28;20089;-59
2023/06/01 04:17:40;;;;;;;13.00;4.05;;;12.40;99.90;;;;;;4918352;29;20396;-59
2023/06/01 04:20:12;;;;;;;8.02;3.90;;;13.00;99.90;;;;;;4903014;29;20127;-59
2023/06/01 04:22:39;;;;;;;9.70;3.80;;;12.10;99.90;;;;;;4917459;29;20382;-57
2023/06/01 04:25:08;;;;;;;8.98;3.72;;;12.60;99.90;;;;;;4925393;28;20051;-59
2023/06/01 04:27:37;;;;;;;9.80;4.30;;;12.00;99.90;;;;;;4941582;28;20560;-58
2023/06/01 04:30:09;;;;;;;8.38;3.30;;;11.90;99.90;;;;;;4923443;28;20083;-58
2023/06/01 04:32:37;;;;;;;7.88;3.58;;;12.20;99.90;;;;;;4944535;28;20039;-59
2023/06/01 04:35:05;;;;;;;11.52;3.63;;;12.10;99.90;;;;;;4938736;28;20047;-59
2023/06/01 04:37:40;;;;;;;10.43;4.05;;;12.60;99.90;;;;;;4938425;28;20059;-58
2023/06/01 04:40:09;;;;;;;10.50;3.47;;;12.60;99.90;;;;;;4944371;28;20101;-59
2023/06/01 04:42:48;;;;;;;14.60;3.88;;;12.20;99.90;;;;;;4937651;28;20039;-59
2023/06/01 04:45:15;;;;;;;8.88;3.40;;;12.10;99.90;;;;;;4937912;28;20073;-60
2023/06/01 04:47:44;;;;;;;12.15;3.70;;;12.40;99.90;;;;;;4939026;28;20086;-61
2023/06/01 04:50:11;;;;;;;8.05;3.20;;;12.70;99.90;;;;;;4938072;28;20125;-61
2023/06/01 04:52:40;;;;;;;10.93;4.05;;;12.20;99.90;;;;;;4937064;28;20073;-60
2023/06/01 04:55:08;;;;;;;9.93;3.72;;;12.50;99.90;;;;;;4922113;29;20484;-61
2023/06/01 04:57:35;;;;;;;10.43;4.05;;;12.40;99.90;;;;;;4937534;28;20509;-61
2023/06/01 05:00:06;;;;;;;8.77;3.55;;;12.20;99.90;;;;;;4923486;28;20082;-61
2023/06/01 05:02:31;;;;;;;14.00;3.90;;;12.20;99.90;;;;;;4939413;28;20111;-62
2023/06/01 05:04:57;;;;;;;8.32;4.22;;;;;;;;;;4937522;28;20458;-61
2023/06/01 05:07:24;;;;;;;8.95;3.40;;;12.70;99.90;;;;;;4924928;28;20161;-60
2023/06/01 05:09:51;;;;;;;15.60;4.07;;;;;;;;;;4921113;29;20051;-61
2023/06/01 05:12:16;;;;;;;13.95;4.45;;;12.70;99.90;;;;;;4941817;28;20051;-61
2023/06/01 05:14:42;;;;;;;9.15;4.70;;;12.80;99.90;;;;;;4921295;29;20832;-60
2023/06/01 05:17:08;;;;;;;13.32;4.18;;;;;;;;;;4939948;28;20039;-61
2023/06/01 05:19:34;;;;;;;9.50;4.03;;;12.40;99.90;;;;;;4943287;28;20051;-59
2023/06/01 05:21:59;;;;;;;10.98;5.15;;;12.80;99.90;;;;;;4919336;28;20538;-59
2023/06/01 05:24:25;;;;;;;13.45;4.70;;;12.80;99.90;;;;;;4937405;29;20164;-60
2023/06/01 05:26:50;;;;;;;10.15;4.18;;;13.00;99.90;;;;;;4935873;29;20352;-60
2023/06/01 05:29:16;;;;;;;10.55;4.75;;;12.90;99.90;;;;;;4918817;29;20039;-59
2023/06/01 05:31:41;;;;;;;12.00;4.93;;;12.70;99.90;;;;;;4935278;28;20112;-60
2023/06/01 05:34:08;;;;;;;12.07;4.47;;;;;;;;;;4935451;28;20292;-59
2023/06/01 05:36:35;;;;;;;12.10;4.15;;;13.00;99.90;;;;;;4920083;29;20470;-60
2023/06/01 05:39:01;;;;;;;10.32;4.85;;;;;;;;;;4919203;28;20439;-59
2023/06/01 05:41:27;;;;;;;8.93;4.03;;;12.90;99.90;;;;;;4918576;28;20051;-60
2023/06/01 05:43:52;;;;;;;10.85;4.13;;;12.90;99.90;;;;;;4935825;28;20355;-61
2023/06/01 05:46:18;;;;;;;9.13;3.50;;;12.90;99.90;;;;;;4936772;29;20039;-59
2023/06/01 05:48:44;;;;;;;8.88;3.90;;;13.00;99.90;;;;;;4935579;28;20106;-60
2023/06/01 05:51:10;;;;;;;9.55;3.40;;;12.70;99.90;;;;;;4918785;29;20464;-60
2023/06/01 05:53:35;;;;;;;11.93;3.67;;;13.10;99.90;;;;;;4936070;28;20055;-59
2023/06/01 05:56:01;;;;;;;7.63;3.17;;;13.00;99.90;;;;;;4919097;29;20059;-59
2023/06/01 05:58:26;;;;;;;7.50;3.35;;;12.90;99.90;;;;;;4919669;29;20441;-59
2023/06/01 06:00:52;;;;;;;9.18;3.90;;;13.20;99.90;;;;;;4935443;29;20123;-60
2023/06/01 06:03:18;;;;;;;11.48;3.55;;;13.20;99.90;;;;;;4935979;29;20401;-60
2023/06/01 06:05:44;;;;;;;9.45;4.07;;;;;;;;;;4936373;29;20054;-60
2023/06/01 06:08:10;;;;;;;8.48;3.90;;;13.00;99.90;;;;;;4918763;29;20059;-58
2023/06/01 06:10:36;;;;;;;13.27;3.75;;;13.10;99.90;;;;;;4918383;29;20047;-59
2023/06/01 06:13:02;;;;;;;7.68;3.63;;;13.30;99.90;;;;;;4935801;28;20051;-59
2023/06/01 06:15:27;;;;;;;9.27;3.53;;;13.10;88.40;;;;;;4919389;29;20378;-60
2023/06/01 06:17:53;;;;;;;7.65;3.30;;;13.10;99.90;;;;;;4935964;28;20319;-58
2023/06/01 06:20:21;;;;;;;7.43;3.10;;;13.20;99.90;;;;;;4935148;29;20066;-58
2023/06/01 06:22:50;;;;;;;11.10;3.58;;;;;;;;;;4935799;28;20558;-58
2023/06/01 06:25:15;;;;;;;11.63;3.78;;;13.10;80.30;;;;;;4903857;29;20106;-59
2023/06/01 06:27:41;;;;;;;8.52;3.25;;;12.90;84.00;;;;;;4935881;29;20139;-60
2023/06/01 06:30:07;;;;;;;13.40;3.83;;;;;;;;;;4902878;29;20047;-59
2023/06/01 06:32:34;;;;;;;7.65;4.00;;;;;;;;;;4935196;28;20091;-60
2023/06/01 06:35:00;;;;;;;10.85;4.25;;;13.20;90.20;;;;;;4935848;29;20095;-59
2023/06/01 06:37:27;;;;;;;15.02;4.10;;;12.80;99.90;;;;;;4937725;29;20035;-58
2023/06/01 06:39:53;;;;;;;8.77;3.00;;;13.40;99.90;;;;;;4932709;28;20062;-60
2023/06/01 06:42:18;;;;;;;7.78;2.90;;;13.50;88.00;;;;;;4943728;28;20075;-59
2023/06/01 06:44:44;;;;;;;7.75;2.90;;;13.40;92.30;;;;;;4943771;28;20046;-59
2023/06/01 06:47:14;;;;;;;8.48;3.30;;;13.40;99.90;;;;;;4942361;29;20139;-59
2023/06/01 06:49:40;;;;;;;9.73;3.22;;;13.50;99.90;;;;;;4933242;29;20505;-59
2023/06/01 06:52:08;;;;;;;12.77;3.67;;;13.30;99.90;;;;;;4934386;28;20101;-59
2023/06/01 06:54:35;;;;;;;8.23;3.10;;;13.10;99.90;;;;;;4935630;28;20043;-60
2023/06/01 06:57:00;;;;;;;8.57;3.20;;;13.80;99.90;;;;;;4935885;29;20087;-59
2023/06/01 06:59:26;;;;;;;9.45;2.90;;;13.60;99.90;;;;;;4914726;29;20050;-60
2023/06/01 07:01:51;;;;;;;8.27;2.63;;;13.50;99.90;;;;;;4934543;28;20142;-58
2023/06/01 07:04:17;;;;;;;7.40;2.80;;;12.50;99.90;;;;;;4935760;29;20198;-58
2023/06/01 07:06:43;;;;;;;7.38;2.53;;;13.90;99.90;;;;;;4936264;29;20051;-60
2023/06/01 07:09:09;;;;;;;6.90;2.38;;;13.80;99.90;;;;;;4943333;29;20059;-61
2023/06/01 07:11:35;;;;;;;6.43;2.53;;;13.70;99.90;;;;;;4937584;28;20051;-60
2023/06/01 07:14:01;;;;;;;7.72;2.33;;;13.60;99.90;;;;;;4943062;28;20419;-60
2023/06/01 07:16:28;;;;;;;5.93;2.08;;;13.70;99.90;;;;;;4942842;28;20087;-60
2023/06/01 07:18:54;;;;;;;6.45;2.30;;;13.40;99.90;;;;;;4931781;29;20469;-59
2023/06/01 07:21:20;;;;;;;5.22;2.75;;;13.50;99.90;;;;;;4934889;29;20051;-60
2023/06/01 07:23:46;;;;;;;7.82;2.58;;;;;;;;;;4933814;28;20074;-58
2023/06/01 07:26:12;;;;;;;6.60;2.63;;;13.40;99.90;;;;;;4935257;29;20767;-58
2023/06/01 07:28:38;;;;;;;6.70;2.65;;;14.10;99.90;;;;;;4935114;29;20482;-59
2023/06/01 07:31:05;;;;;;;8.57;3.22;;;14.30;99.90;;;;;;4934709;29;20110;-60
2023/06/01 07:33:31;;;;;;;6.18;2.33;;;14.00;99.90;;;;;;4934571;28;20054;-59
2023/06/01 07:35:58;;;;;;;6.15;2.30;;;13.80;99.90;;;;;;4917625;29;20117;-60
2023/06/01 07:38:24;;;;;;;6.55;2.03;;;13.90;99.90;;;;;;4934487;29;20717;-61
2023/06/01 07:40:51;;;;;;;6.20;2.60;;;14.00;99.90;;;;;;4916848;29;20140;-60
2023/06/01 07:43:17;;;;;;;7.65;2.53;;;;;;;;;;4935035;28;20100;-60
2023/06/01 07:45:43;;;;;;;7.90;2.50;;;13.70;99.90;;;;;;4917656;29;20051;-59
2023/06/01 07:48:09;;;;;;;6.50;2.28;;;13.60;99.90;;;;;;4935134;29;20051;-59
2023/06/01 07:50:36;;;;;;;7.00;2.42;;;;;;;;;;4933708;29;20054;-60
2023/06/01 07:53:02;;;;;;;7.35;2.95;;;13.90;99.90;;;;;;4934802;28;20150;-60
2023/06/01 07:55:29;;;;;;;6.82;2.85;;;13.80;99.90;;;;;;4934425;29;20047;-59
2023/06/01 07:57:54;;;;;;;8.30;2.80;;;13.50;99.90;;;;;;4933854;29;20307;-59
2023/06/01 08:00:22;;;;;;;8.27;2.60;;;13.40;99.90;;;;;;4917827;29;20057;-59
2023/06/01 08:02:48;;;;;;;8.18;2.75;;;;;;;;;;4931605;28;20074;-61
2023/06/01 08:05:17;;;;;;;9.20;3.47;;;13.70;99.90;;;;;;4935763;28;20855;-61
2023/06/01 08:07:45;;;;;;;9.55;3.25;;;13.40;99.90;;;;;;4938072;29;20039;-59
2023/06/01 08:10:13;;;;;;;11.45;3.33;;;13.40;99.90;;;;;;4938225;29;20127;-60
2023/06/01 08:12:40;;;;;;;7.32;3.10;;;14.10;99.90;;;;;;4919169;29;20058;-61
2023/06/01 08:15:06;;;;;;;14.60;3.75;;;13.90;99.90;;;;;;4938133;29;20054;-61
2023/06/01 08:17:32;;;;;;;9.20;3.35;;;13.50;99.90;;;;;;4937919;29;20497;-61
2023/06/01 08:19:58;;;;;;;9.52;3.22;;;14.20;99.90;;;;;;4937515;29;20555;-60
2023/06/01 08:22:24;;;;;;;9.77;3.60;;;13.90;99.90;;;;;;4904415;29;20069;-59
2023/06/01 08:24:53;;;;;;;8.55;3.17;;;13.90;99.90;;;;;;4937810;29;20039;-59
2023/06/01 08:27:23;;;;;;;7.88;3.30;;;13.50;99.90;;;;;;4921458;29;20431;-59
2023/06/01 08:29:49;;;;;;;12.98;3.30;;;13.40;99.90;;;;;;4937877;29;20103;-60
2023/06/01 08:32:16;;;;;;;10.35;3.67;;;13.40;99.90;;;;;;4919470;29;20051;-60
2023/06/01 08:34:46;;;;;;;12.02;3.83;;;13.70;90.20;;;;;;4937030;29;20118;-60
2023/06/01 08:37:13;;;;;;;12.18;3.72;;;14.10;54.00;;;;;;4937692;29;20061;-60
2023/06/01 08:39:39;;;;;;;12.68;4.57;;;13.70;1.00;;;;;;4937543;29;20114;-59
2023/06/01 08:42:09;;;;;;;13.85;3.78;;;13.80;1.00;;;;;;4937036;28;20039;-61
2023/06/01 08:44:38;;;;;;;12.63;4.00;;;13.90;1.00;;;;;;4937488;29;20043;-59
2023/06/01 08:47:05;;;;;;;10.85;3.60;;;13.90;1.00;;;;;;4937315;29;20784;-61
2023/06/01 08:49:32;;;;;;;12.73;3.70;;;;;;;;;;4937087;29;20118;-59
2023/06/01 08:52:01;;;;;;;12.18;3.50;;;13.70;1.00;;;;;;4936133;28;20449;-59
2023/06/01 08:54:29;;;;;;;9.73;3.47;;;13.80;1.00;;;;;;4936488;29;20047;-61
2023/06/01 08:56:55;;;;;;;8.95;3.33;;;13.90;1.00;;;;;;4936492;29;20105;-59
2023/06/01 08:59:22;;;;;;;9.52;3.40;;;13.90;1.00;;;;;;4936873;29;20486;-59
2023/06/01 09:01:49;;;;;;;11.85;3.70;;;14.50;1.00;;;;;;4935987;29;20075;-60
2023/06/01 09:04:15;;;;;;;11.65;3.30;;;14.10;1.00;;;;;;4936377;28;20042;-59
2023/06/01 09:06:44;;;;;;;8.45;3.05;;;14.30;1.00;;;;;;4936363;29;20621;-59
2023/06/01 09:09:12;;;;;;;11.85;3.28;;;13.70;99.90;;;;;;4919583;29;20046;-61
2023/06/01 09:11:39;;;;;;;8.20;3.47;;;14.30;1.00;;;;;;4918905;29;20075;-61
2023/06/01 09:14:25;;;;;;;9.80;3.10;;;14.40;99.90;;;;;;4936335;28;20058;-59
2023/06/01 09:16:51;;;;;;;9.15;3.20;;;14.00;99.90;;;;;;4935076;28;20509;-60
2023/06/01 09:19:20;;;;;;;9.73;2.92;;;14.10;99.90;;;;;;4935999;29;20596;-61
2023/06/01 09:21:59;;;;;;;9.98;3.17;;;14.10;99.90;;;;;;4918332;29;20125;-59
2023/06/01 09:24:26;;;;;;;8.00;2.85;;;14.70;99.90;;;;;;4936467;29;20074;-60
2023/06/01 09:27:02;;;;;;;7.90;2.78;;;14.50;99.90;;;;;;4918679;29;20477;-60
2023/06/01 09:29:28;;;;;;;10.05;3.72;;;14.40;99.90;;;;;;4920190;29;20342;-60
2023/06/01 09:31:54;;;;;;;8.60;3.63;;;14.90;99.90;;;;;;4935067;28;20043;-60
2023/06/01 09:34:21;;;;;;;9.88;3.40;;;14.60;99.90;;;;;;4936004;29;20054;-60
2023/06/01 09:36:49;;;;;;;13.18;4.13;;;14.40;99.90;;;;;;4918848;29;20126;-60
2023/06/01 09:39:17;;;;;;;13.25;3.70;;;14.80;99.90;;;;;;4936519;29;20058;-60
2023/06/01 09:41:52;;;;;;;8.65;2.97;;;14.80;99.90;;;;;;4934988;29;20051;-58
2023/06/01 09:44:25;;;;;;;11.93;2.95;;;15.10;99.90;;;;;;4930353;29;20261;-59
2023/06/01 09:46:57;;;;;;;7.57;3.08;;;14.30;99.90;;;;;;4935190;29;20066;-60
2023/06/01 09:49:28;;;;;;;8.43;3.50;;;14.80;99.90;;;;;;4919755;29;20572;-59
2023/06/01 09:52:07;;;;;;;7.55;2.90;;;;;;;;;;4918410;28;20587;-61
2023/06/01 09:54:47;;;;;;;8.98;2.92;;;14.70;99.90;;;;;;4935605;29;20035;-60
2023/06/01 09:57:23;;;;;;;12.55;3.28;;;14.80;99.90;;;;;;4930336;29;20688;-59
2023/06/01 09:59:49;;;;;;;10.07;3.25;;;14.70;99.90;;;;;;4935536;29;20055;-59
2023/06/01 10:02:19;;;;;;;7.65;2.92;;;14.30;99.90;;;;;;4934915;28;20098;-59
2023/06/01 10:04:52;;;;;;;12.57;2.65;;;14.70;99.90;;;;;;4932671;29;20114;-59
2023/06/01 10:07:19;;;;;;;8.63;3.45;;;14.70;99.90;;;;;;4919078;29;20185;-61
2023/06/01 10:09:49;;;;;;;10.73;3.03;;;14.80;99.90;;;;;;4935725;29;20841;-61
2023/06/01 10:12:15;;;;;;;10.50;2.83;;;14.70;99.90;;;;;;4917835;28;20102;-60
2023/06/01 10:14:41;;;;;;;8.18;3.15;;;15.10;99.90;;;;;;4935571;29;20359;-61
2023/06/01 10:17:07;;;;;;;7.72;3.33;;;14.90;99.90;;;;;;4918019;29;20145;-61
2023/06/01 10:19:35;;;;;;;6.70;2.97;;;14.60;99.90;;;;;;4918074;29;20051;-60
2023/06/01 10:22:03;;;;;;;7.50;3.20;;;15.00;99.90;;;;;;4934858;28;20039;-60
2023/06/01 10:24:29;;;;;;;7.00;2.95;;;15.40;99.90;;;;;;4935840;29;20042;-60
2023/06/01 10:27:01;;;;;;;8.43;2.85;;;14.80;99.90;;;;;;4916081;29;20529;-59
2023/06/01 10:29:29;;;;;;;9.27;3.00;;;15.10;99.90;;;;;;4935196;28;20378;-59
2023/06/01 10:31:55;;;;;;;9.88;4.03;;;15.00;99.90;;;;;;4933606;28;20043;-60
2023/06/01 10:34:44;;;;;;;8.75;3.15;;;15.20;99.90;;;;;;4918269;29;20057;-60
2023/06/01 10:37:11;;;;;;;8.38;3.20;;;15.20;99.90;;;;;;4927566;29;20102;-61
2023/06/01 10:39:37;;;;;;;12.35;3.67;;;15.00;99.90;;;;;;4918042;29;20447;-60
2023/06/01 10:42:18;;;;;;;10.18;3.28;;;15.00;99.90;;;;;;4900639;28;20122;-59
2023/06/01 10:44:48;;;;;;;8.80;3.38;;;15.40;89.40;;;;;;4917645;29;20631;-60
2023/06/01 10:47:13;;;;;;;9.50;3.30;;;15.50;91.30;;;;;;4935317;29;20058;-60
2023/06/01 10:49:51;;;;;;;7.40;3.20;;;15.40;98.30;;;;;;4934975;29;20047;-60
2023/06/01 10:52:33;;;;;;;9.63;2.92;;;15.40;99.90;;;;;;4933921;28;20353;-60
2023/06/01 10:55:11;;;;;;;10.63;3.20;;;15.30;99.90;;;;;;4917632;29;20058;-60
2023/06/01 10:57:41;;;;;;;8.32;3.10;;;15.10;99.90;;;;;;4917565;29;20083;-60
2023/06/01 11:00:10;;;;;;;8.80;3.28;;;;;;;;;;4918184;29;20047;-61
2023/06/01 11:02:44;;;;;;;8.27;2.45;;;15.50;99.90;;;;;;4933679;28;20071;-59
2023/06/01 11:05:47;;;;;;;7.97;3.17;;;16.00;86.90;;;;;;4918107;29;20066;-58
2023/06/01 11:08:20;;;;;;;8.02;2.58;;;15.30;54.50;;;;;;4934102;29;20184;-59
2023/06/01 11:10:55;;;;;;;11.15;2.80;;;15.70;79.00;;;;;;4933454;29;20478;-59
2023/06/01 11:13:39;;;;;;;9.77;3.30;;;15.30;63.20;;;;;;4928501;28;20465;-60
2023/06/01 11:16:09;;;;;;;7.75;2.30;;;15.20;60.50;;;;;;4917839;29;20047;-60
2023/06/01 11:18:41;;;;;;;6.90;2.42;;;;;;;;;;4934196;29;20409;-60
2023/06/01 11:21:20;;;;;;;7.57;2.10;;;15.60;64.80;;;;;;4934028;29;21330;-60
2023/06/01 11:23:45;;;;;;;7.15;2.20;;;16.10;68.20;;;;;;4934221;28;20043;-60
2023/06/01 11:26:15;;;;;;;7.75;1.92;;;15.40;16.40;;;;;;4934372;29;20043;-60
2023/06/01 11:28:44;;;;;;;7.75;2.50;;;16.10;1.00;;;;;;4934359;29;20146;-61
2023/06/01 11:31:12;;;;;;;7.53;2.10;;;16.10;1.00;;;;;;4934221;29;20417;-61
2023/06/01 11:33:41;;;;;;;6.95;2.10;;;15.80;1.00;;;;;;4934363;28;20533;-59
2023/06/01 11:36:10;;;;;;;6.07;1.95;;;16.20;1.00;;;;;;4934989;29;20059;-60
2023/06/01 11:38:39;;;;;;;6.88;2.38;;;15.90;1.00;;;;;;4917147;29;20700;-60
2023/06/01 11:41:06;;;;;;;5.00;1.85;;;16.30;1.00;;;;;;4933941;29;20050;-61
2023/06/01 11:43:32;;;;;;;5.05;2.08;;;16.20;1.00;;;;;;4917092;29;20039;-59
2023/06/01 11:46:02;;;;;;;7.47;2.53;;;16.10;1.00;;;;;;4934659;29;20430;-61
2023/06/01 11:48:28;;;;;;;6.63;2.22;;;15.70;1.00;;;;;;4934479;29;20102;-60
2023/06/01 11:50:54;;;;;;;6.72;2.33;;;15.90;99.90;;;;;;4934104;29;20035;-61
2023/06/01 11:53:21;;;;;;;6.35;2.67;;;;;;;;;;4917773;29;20061;-61
2023/06/01 11:55:54;;;;;;;6.80;2.30;;;16.50;99.90;;;;;;4934584;29;20047;-61
2023/06/01 11:58:29;;;;;;;8.23;3.35;;;16.20;99.90;;;;;;4928171;29;20085;-61
2023/06/01 12:00:56;;;;;;;9.10;2.42;;;16.70;99.90;;;;;;4900880;29;20518;-61
2023/06/01 12:03:26;;;;;;;8.25;2.35;;;16.50;99.90;;;;;;4934675;28;20142;-60
2023/06/01 12:05:52;;;;;;;8.68;3.35;;;;;;;;;;4934132;29;20195;-61
2023/06/01 12:08:20;;;;;;;10.63;2.70;;;16.00;99.90;;;;;;4934398;29;20043;-61
2023/06/01 12:10:48;;;;;;;8.52;2.45;;;16.00;99.90;;;;;;4933567;29;20482;-59
2023/06/01 12:13:20;;;;;;;8.38;3.13;;;15.70;99.90;;;;;;4934458;28;20472;-60
2023/06/01 12:15:46;;;;;;;8.15;2.80;;;16.30;99.90;;;;;;4933624;29;20074;-61
2023/06/01 12:18:12;;;;;;;6.35;2.70;;;16.00;99.90;;;;;;4916555;29;20040;-60
2023/06/01 12:20:45;;;;;;;9.52;2.63;;;15.90;99.90;;;;;;4934103;29;20450;-59
2023/06/01 12:23:18;;;;;;;10.60;2.78;;;16.10;99.90;;;;;;4901143;29;20368;-59
2023/06/01 12:25:53;;;;;;;9.30;2.30;;;;;;;;;;4934413;29;20071;-61
2023/06/01 12:28:20;;;;;;;8.07;2.75;;;16.10;99.90;;;;;;4909748;29;20127;-59
2023/06/01 12:30:46;;;;;;;8.23;2.45;;;15.70;99.90;;;;;;4933210;29;20174;-59
2023/06/01 12:33:36;;;;;;;7.25;2.50;;;16.00;99.90;;;;;;4933712;28;20043;-59
2023/06/01 12:36:04;;;;;;;10.48;3.20;;;16.10;99.90;;;;;;4934736;29;20047;-60
2023/06/01 12:38:51;;;;;;;9.07;3.03;;;15.60;99.90;;;;;;4927865;29;20043;-60
2023/06/01 12:41:18;;;;;;;8.18;2.88;;;15.80;99.90;;;;;;4916914;29;20146;-59
2023/06/01 12:43:50;;;;;;;9.00;2.55;;;15.70;99.90;;;;;;4933525;28;20042;-60
2023/06/01 12:46:32;;;;;;;8.60;2.35;;;15.80;99.90;;;;;;4933961;29;20035;-60
2023/06/01 12:49:17;;;;;;;7.30;2.50;;;16.00;99.90;;;;;;4917387;29;20043;-58
2023/06/01 12:51:43;;;;;;;7.63;2.20;;;15.90;99.90;;;;;;4934423;28;20054;-59
2023/06/01 12:54:09;;;;;;;7.93;2.58;;;15.80;99.90;;;;;;4937222;28;20106;-57
2023/06/01 12:56:34;;;;;;;9.93;2.72;;;16.30;99.90;;;;;;4937678;29;20568;-60
2023/06/01 12:59:00;;;;;;;10.15;2.80;;;15.70;99.90;;;;;;4903925;29;20047;-61